Time;durP1;ratioP1;P1;durP2;ratioP2;P2;SDS_P1;SDS_P2;PMS_P1;PMS_P2;Temp;Humidity;BMP_temperature;BMP_pressure;BME280_temperature;BME280_humidity;BME280_pressure;Samples;Min_cycle;Max_cycle;Signal;HPM_P1;HPM_P2
2023/03/19 00:00:32;;;;;;;1.92;1.20;;;10.20;99.90;;;;;;5015732;28;20927;-74
2023/03/19 00:02:59;;;;;;;2.58;1.20;;;10.30;99.90;;;;;;5011348;28;21861;-75
2023/03/19 00:05:25;;;;;;;3.55;1.70;;;10.30;99.90;;;;;;5011378;28;20413;-73
2023/03/19 00:07:51;;;;;;;2.60;1.40;;;10.30;99.90;;;;;;5020764;28;20971;-73
2023/03/19 00:10:18;;;;;;;2.88;1.40;;;10.30;99.90;;;;;;4997207;28;20964;-72
2023/03/19 00:12:44;;;;;;;2.97;1.85;;;10.30;99.90;;;;;;5033203;28;20512;-73
2023/03/19 00:15:13;;;;;;;2.88;1.85;;;10.30;99.90;;;;;;5016448;28;20451;-73
2023/03/19 00:17:40;;;;;;;3.58;1.73;;;10.20;99.90;;;;;;5019276;28;20944;-73
2023/03/19 00:20:08;;;;;;;3.90;2.00;;;10.20;99.90;;;;;;5015764;28;21565;-73
2023/03/19 00:22:36;;;;;;;3.00;1.90;;;10.20;99.90;;;;;;5004127;28;20510;-73
2023/03/19 00:25:02;;;;;;;2.55;1.98;;;10.20;99.90;;;;;;5004471;28;20418;-72
2023/03/19 00:27:30;;;;;;;2.67;1.90;;;10.20;99.90;;;;;;5010134;28;20498;-72
2023/03/19 00:29:56;;;;;;;3.35;2.25;;;10.10;99.90;;;;;;5004351;28;20556;-73
2023/03/19 00:32:24;;;;;;;4.50;2.25;;;10.10;99.90;;;;;;5003937;28;21084;-73
2023/03/19 00:34:50;;;;;;;4.80;2.00;;;10.10;99.90;;;;;;5000734;28;20494;-72
2023/03/19 00:37:17;;;;;;;3.30;2.08;;;10.00;99.90;;;;;;5019562;28;20419;-73
2023/03/19 00:39:43;;;;;;;2.87;2.33;;;10.00;99.90;;;;;;5007058;28;20415;-73
2023/03/19 00:42:09;;;;;;;2.63;2.00;;;10.00;99.90;;;;;;5003922;28;20414;-72
2023/03/19 00:44:36;;;;;;;3.00;2.30;;;10.00;99.90;;;;;;5020885;28;20411;-72
2023/03/19 00:47:05;;;;;;;3.05;2.22;;;10.00;99.90;;;;;;5003163;28;20555;-72
2023/03/19 00:49:32;;;;;;;4.55;2.40;;;9.90;99.90;;;;;;5006278;28;20570;-72
2023/03/19 00:52:01;;;;;;;7.80;2.65;;;10.00;99.90;;;;;;4988441;28;20419;-72
2023/03/19 00:54:27;;;;;;;4.43;2.40;;;9.90;99.90;;;;;;5019658;28;21882;-72
2023/03/19 00:56:56;;;;;;;3.72;2.30;;;9.90;99.90;;;;;;5003130;28;21050;-72
2023/03/19 00:59:24;;;;;;;3.70;2.30;;;9.90;99.90;;;;;;5024381;28;21439;-72
2023/03/19 01:01:50;;;;;;;4.50;2.78;;;10.00;99.90;;;;;;5026352;28;20398;-72
2023/03/19 01:04:17;;;;;;;3.65;2.47;;;10.00;99.90;;;;;;5016177;28;20411;-72
2023/03/19 01:06:44;;;;;;;3.75;2.72;;;10.10;99.90;;;;;;5022347;28;20955;-72
2023/03/19 01:09:10;;;;;;;3.20;2.67;;;10.10;99.90;;;;;;5014220;28;20452;-72
2023/03/19 01:11:37;;;;;;;3.88;2.60;;;10.10;99.90;;;;;;5022008;28;20450;-72
2023/03/19 01:14:03;;;;;;;4.63;2.90;;;10.20;99.90;;;;;;5021550;28;20437;-72
2023/03/19 01:16:30;;;;;;;4.00;2.65;;;10.20;99.90;;;;;;5021738;28;20445;-72
2023/03/19 01:18:57;;;;;;;3.80;2.78;;;10.20;99.90;;;;;;5028289;28;20413;-72
2023/03/19 01:21:23;;;;;;;3.25;2.90;;;10.20;99.90;;;;;;5026851;28;20407;-72
2023/03/19 01:23:50;;;;;;;5.33;3.20;;;10.10;99.90;;;;;;5046710;28;21111;-73
2023/03/19 01:26:17;;;;;;;5.10;3.55;;;10.00;99.90;;;;;;5048700;28;20447;-72
2023/03/19 01:28:43;;;;;;;4.47;3.47;;;10.00;99.90;;;;;;5020444;28;20893;-72
2023/03/19 01:31:10;;;;;;;4.50;3.50;;;9.90;99.90;;;;;;5018813;28;20426;-72
2023/03/19 01:33:37;;;;;;;5.15;3.90;;;10.00;99.90;;;;;;5016235;28;20895;-72
2023/03/19 01:36:04;;;;;;;5.15;3.90;;;10.00;99.90;;;;;;5019531;28;20794;-73
2023/03/19 01:38:31;;;;;;;6.03;3.75;;;10.00;99.90;;;;;;5022202;28;20417;-73
2023/03/19 01:40:57;;;;;;;7.50;5.13;;;10.10;99.90;;;;;;5015349;28;20429;-73
2023/03/19 01:43:29;;;;;;;5.55;5.00;;;10.10;99.90;;;;;;5019884;28;20917;-73
2023/03/19 01:46:04;;;;;;;4.93;4.53;;;10.20;99.90;;;;;;5019843;28;20417;-73
2023/03/19 01:48:43;;;;;;;5.70;4.88;;;10.20;99.90;;;;;;5033813;28;21089;-73
2023/03/19 01:51:15;;;;;;;5.97;4.88;;;10.30;99.90;;;;;;5046967;28;20422;-73
2023/03/19 01:53:48;;;;;;;6.85;5.22;;;10.30;99.90;;;;;;5021092;28;20482;-73
2023/03/19 01:56:40;;;;;;;5.40;4.82;;;10.40;99.90;;;;;;5047805;28;20511;-73
2023/03/19 01:59:42;;;;;;;7.60;5.82;;;10.40;99.90;;;;;;5016305;28;20431;-73
2023/03/19 02:02:32;;;;;;;6.50;5.90;;;10.40;99.90;;;;;;4999336;28;20415;-73
2023/03/19 02:05:14;;;;;;;6.57;5.80;;;10.40;99.90;;;;;;5021808;28;20862;-75
2023/03/19 02:07:43;;;;;;;6.50;5.75;;;10.40;99.90;;;;;;5038159;28;20425;-75
2023/03/19 02:10:15;;;;;;;6.63;5.80;;;10.30;99.90;;;;;;5007060;28;20510;-76
2023/03/19 02:12:42;;;;;;;6.93;5.60;;;10.20;99.90;;;;;;5038995;28;20420;-76
2023/03/19 02:15:08;;;;;;;6.50;5.55;;;10.20;99.90;;;;;;5022519;28;20492;-76
2023/03/19 02:17:35;;;;;;;6.93;5.80;;;10.20;99.90;;;;;;5019354;28;20514;-75
2023/03/19 02:20:17;;;;;;;7.13;6.15;;;10.20;99.90;;;;;;5052258;28;20411;-75
2023/03/19 02:23:15;;;;;;;7.35;6.55;;;10.10;99.90;;;;;;5018300;28;20414;-75
2023/03/19 02:26:12;;;;;;;7.97;7.18;;;10.20;99.90;;;;;;5025672;28;20433;-75
2023/03/19 02:28:43;;;;;;;8.05;7.03;;;10.20;99.90;;;;;;5031698;28;20422;-74
2023/03/19 02:31:11;;;;;;;8.75;7.47;;;10.20;99.90;;;;;;5025944;28;21221;-74
2023/03/19 02:33:38;;;;;;;7.18;6.47;;;10.20;99.90;;;;;;5017666;28;20518;-74
2023/03/19 02:36:14;;;;;;;8.38;7.00;;;10.30;99.90;;;;;;5027161;28;20509;-75
2023/03/19 02:38:45;;;;;;;7.38;6.68;;;10.30;99.90;;;;;;5017976;28;20415;-75
2023/03/19 02:41:11;;;;;;;8.70;7.10;;;10.30;99.90;;;;;;5021535;28;20419;-75
2023/03/19 02:43:41;;;;;;;8.13;7.32;;;10.30;99.90;;;;;;5020432;28;20411;-75
2023/03/19 02:46:12;;;;;;;8.32;7.45;;;10.30;99.90;;;;;;5024642;28;21066;-75
2023/03/19 02:48:40;;;;;;;7.85;7.05;;;10.30;99.90;;;;;;5018954;28;20420;-75
2023/03/19 02:51:07;;;;;;;8.30;7.32;;;10.30;99.90;;;;;;5029927;28;20422;-75
2023/03/19 02:53:36;;;;;;;8.05;7.10;;;10.40;99.90;;;;;;5013718;28;20501;-75
2023/03/19 02:56:03;;;;;;;8.35;7.55;;;10.40;99.90;;;;;;5019883;28;20409;-74
2023/03/19 02:58:29;;;;;;;10.18;7.57;;;10.40;99.90;;;;;;5031583;28;20453;-74
2023/03/19 03:00:56;;;;;;;9.05;7.78;;;10.40;99.90;;;;;;5023163;28;20405;-74
2023/03/19 03:03:22;;;;;;;8.65;7.28;;;10.40;99.90;;;;;;5016879;28;20541;-74
2023/03/19 03:05:49;;;;;;;9.48;7.38;;;10.40;99.90;;;;;;5005452;28;20465;-74
2023/03/19 03:08:15;;;;;;;9.48;7.20;;;10.50;99.90;;;;;;5021795;28;20503;-74
2023/03/19 03:10:41;;;;;;;8.25;7.18;;;10.50;99.90;;;;;;5018818;28;20415;-73
2023/03/19 03:13:08;;;;;;;8.00;7.20;;;10.50;99.90;;;;;;5002246;28;20497;-74
2023/03/19 03:15:37;;;;;;;8.50;7.30;;;10.40;99.90;;;;;;5021096;28;20418;-74
2023/03/19 03:18:04;;;;;;;9.40;6.90;;;10.40;99.90;;;;;;5018817;28;20423;-73
2023/03/19 03:20:31;;;;;;;8.00;7.20;;;10.40;99.90;;;;;;5024077;28;20419;-73
2023/03/19 03:22:57;;;;;;;9.63;7.50;;;10.40;99.90;;;;;;5020777;28;20919;-73
2023/03/19 03:25:24;;;;;;;8.00;7.20;;;10.30;99.90;;;;;;5046348;28;20812;-74
2023/03/19 03:27:50;;;;;;;8.15;7.30;;;10.30;99.90;;;;;;5051977;28;20444;-74
2023/03/19 03:30:17;;;;;;;8.65;7.00;;;10.30;99.90;;;;;;5019002;28;20491;-73
2023/03/19 03:32:49;;;;;;;11.27;7.57;;;10.30;99.90;;;;;;5019806;28;20483;-73
2023/03/19 03:35:20;;;;;;;8.35;7.18;;;10.20;99.90;;;;;;5020034;28;20762;-73
2023/03/19 03:37:49;;;;;;;7.25;6.55;;;10.20;99.90;;;;;;5015773;28;20431;-74
2023/03/19 03:40:16;;;;;;;9.70;7.35;;;10.20;99.90;;;;;;5019447;28;20454;-74
2023/03/19 03:42:43;;;;;;;7.40;6.70;;;10.10;99.90;;;;;;5017402;28;20405;-74
2023/03/19 03:45:11;;;;;;;8.93;7.07;;;10.10;99.90;;;;;;5018512;28;20433;-74
2023/03/19 03:47:38;;;;;;;7.95;7.15;;;10.10;99.90;;;;;;5010124;28;20931;-74
2023/03/19 03:50:06;;;;;;;7.63;6.90;;;10.20;99.90;;;;;;5031922;28;21108;-74
2023/03/19 03:52:32;;;;;;;10.98;7.78;;;10.20;99.90;;;;;;5015035;28;20422;-74
2023/03/19 03:55:00;;;;;;;12.57;8.33;;;10.20;99.90;;;;;;5018581;28;20485;-74
2023/03/19 03:57:26;;;;;;;7.88;7.05;;;10.20;99.90;;;;;;5015905;28;20431;-74
2023/03/19 03:59:53;;;;;;;7.53;6.72;;;10.30;99.90;;;;;;5019501;28;20410;-74
2023/03/19 04:02:20;;;;;;;9.13;7.10;;;10.30;99.90;;;;;;5018523;28;20419;-74
2023/03/19 04:04:47;;;;;;;9.25;7.43;;;10.20;99.90;;;;;;5050265;28;20411;-74
2023/03/19 04:07:14;;;;;;;9.43;6.87;;;10.20;99.90;;;;;;5020413;28;20491;-73
2023/03/19 04:09:41;;;;;;;8.65;7.10;;;10.30;99.90;;;;;;5018466;28;20952;-73
2023/03/19 04:12:07;;;;;;;11.15;7.97;;;10.30;99.90;;;;;;5019099;28;20424;-74
2023/03/19 04:14:33;;;;;;;9.02;6.97;;;10.30;99.90;;;;;;5016525;28;20413;-73
2023/03/19 04:17:00;;;;;;;8.45;7.07;;;10.40;99.90;;;;;;5036440;28;20972;-73
2023/03/19 04:19:27;;;;;;;8.68;7.70;;;10.40;99.90;;;;;;5034012;28;20755;-73
2023/03/19 04:21:53;;;;;;;9.05;7.93;;;10.50;99.90;;;;;;5018990;28;20855;-73
2023/03/19 04:24:20;;;;;;;9.15;7.35;;;10.50;99.90;;;;;;5037256;28;20919;-73
2023/03/19 04:26:48;;;;;;;8.55;7.50;;;10.50;99.90;;;;;;5021547;28;20441;-73
2023/03/19 04:29:15;;;;;;;9.10;7.65;;;10.50;99.90;;;;;;5019297;28;20414;-73
2023/03/19 04:31:41;;;;;;;10.10;7.80;;;10.60;99.90;;;;;;5033030;28;20933;-73
2023/03/19 04:34:08;;;;;;;9.93;7.57;;;10.60;99.90;;;;;;5021193;28;20450;-73
2023/03/19 04:36:34;;;;;;;12.90;8.13;;;10.70;99.90;;;;;;5019050;28;20449;-73
2023/03/19 04:39:00;;;;;;;9.82;7.97;;;10.80;99.90;;;;;;5050251;28;20403;-73
2023/03/19 04:41:26;;;;;;;11.60;7.93;;;10.70;99.90;;;;;;5023696;28;20419;-73
2023/03/19 04:43:53;;;;;;;12.60;8.40;;;10.80;99.90;;;;;;5020146;28;20542;-73
2023/03/19 04:46:19;;;;;;;10.80;8.65;;;10.80;99.90;;;;;;5000903;28;20499;-73
2023/03/19 04:48:45;;;;;;;11.40;8.77;;;10.80;99.90;;;;;;5019193;28;20405;-73
2023/03/19 04:51:12;;;;;;;9.65;8.27;;;10.80;99.90;;;;;;5020536;28;20414;-73
2023/03/19 04:53:38;;;;;;;9.53;8.53;;;10.80;99.90;;;;;;5021227;28;20460;-73
2023/03/19 04:56:06;;;;;;;8.75;7.82;;;10.80;99.90;;;;;;5018937;28;20424;-73
2023/03/19 04:58:33;;;;;;;8.35;7.22;;;10.80;99.90;;;;;;5037896;28;20459;-73
2023/03/19 05:00:59;;;;;;;9.23;7.57;;;10.80;99.90;;;;;;5017468;28;20514;-73
2023/03/19 05:03:26;;;;;;;9.47;7.63;;;10.80;99.90;;;;;;5027452;28;20421;-75
2023/03/19 05:05:55;;;;;;;8.63;7.50;;;10.80;99.90;;;;;;5022177;28;21042;-75
2023/03/19 05:08:22;;;;;;;7.95;7.13;;;10.80;99.90;;;;;;5021881;28;20423;-75
2023/03/19 05:10:49;;;;;;;8.02;7.10;;;10.80;99.90;;;;;;5005493;28;20440;-75
2023/03/19 05:13:15;;;;;;;8.32;7.45;;;10.90;99.90;;;;;;5022049;28;21039;-74
2023/03/19 05:15:43;;;;;;;8.97;7.80;;;10.90;99.90;;;;;;5015260;28;21061;-74
2023/03/19 05:18:09;;;;;;;10.25;8.07;;;11.00;99.90;;;;;;5018096;28;20420;-75
2023/03/19 05:20:36;;;;;;;8.90;8.10;;;11.00;99.90;;;;;;5022658;28;20419;-75
2023/03/19 05:23:03;;;;;;;11.27;8.40;;;11.10;99.90;;;;;;5019287;28;20467;-74
2023/03/19 05:25:30;;;;;;;10.55;8.10;;;11.10;99.90;;;;;;5021717;28;20418;-74
2023/03/19 05:27:57;;;;;;;9.73;8.00;;;11.20;99.90;;;;;;5020305;28;20419;-75
2023/03/19 05:30:23;;;;;;;9.50;7.60;;;11.20;99.90;;;;;;5003264;28;20777;-75
2023/03/19 05:32:50;;;;;;;8.90;7.80;;;11.30;99.90;;;;;;5032058;28;20426;-75
2023/03/19 05:35:16;;;;;;;9.38;8.05;;;11.40;99.90;;;;;;5015400;28;20418;-74
2023/03/19 05:37:42;;;;;;;10.15;7.85;;;11.50;99.90;;;;;;5027534;28;20776;-74
2023/03/19 05:40:09;;;;;;;13.57;8.35;;;11.50;99.90;;;;;;5017388;28;21995;-75
2023/03/19 05:42:36;;;;;;;11.88;8.57;;;11.50;99.90;;;;;;5017722;28;20446;-74
2023/03/19 05:45:04;;;;;;;10.52;8.07;;;11.50;99.90;;;;;;5022302;28;20765;-74
2023/03/19 05:47:31;;;;;;;11.00;7.85;;;11.50;99.90;;;;;;5031148;28;20421;-73
2023/03/19 05:49:57;;;;;;;9.98;7.80;;;11.50;99.90;;;;;;5029329;28;20480;-73
2023/03/19 05:52:23;;;;;;;11.27;7.90;;;11.50;99.90;;;;;;5019534;28;20462;-73
2023/03/19 05:54:50;;;;;;;10.32;8.30;;;11.50;99.90;;;;;;5023682;28;20525;-72
2023/03/19 05:57:20;;;;;;;11.13;7.97;;;11.50;99.90;;;;;;5021289;28;20407;-72
2023/03/19 05:59:46;;;;;;;10.23;8.13;;;11.50;99.90;;;;;;5048769;28;20480;-72
2023/03/19 06:02:13;;;;;;;9.95;8.00;;;11.50;99.90;;;;;;5017284;28;20411;-72
2023/03/19 06:04:39;;;;;;;11.37;8.40;;;11.50;99.90;;;;;;5005235;28;20504;-72
2023/03/19 06:07:06;;;;;;;11.45;8.52;;;11.50;99.90;;;;;;5016455;28;20429;-72
2023/03/19 06:09:33;;;;;;;10.10;8.35;;;11.50;99.90;;;;;;5016943;28;20425;-72
2023/03/19 06:11:59;;;;;;;10.00;8.10;;;11.50;99.90;;;;;;5049365;28;20424;-72
2023/03/19 06:14:26;;;;;;;9.45;8.45;;;11.50;99.90;;;;;;5025620;28;20437;-72
2023/03/19 06:16:52;;;;;;;9.25;7.97;;;11.50;99.90;;;;;;5018634;28;20425;-72
2023/03/19 06:19:18;;;;;;;10.68;7.82;;;11.60;99.90;;;;;;5034992;28;20430;-72
2023/03/19 06:21:45;;;;;;;12.60;8.13;;;11.60;99.90;;;;;;5004807;28;20470;-72
2023/03/19 06:24:11;;;;;;;10.27;7.82;;;11.60;99.90;;;;;;5000507;28;20418;-73
2023/03/19 06:26:37;;;;;;;9.55;7.68;;;11.70;99.90;;;;;;5004033;28;20411;-73
2023/03/19 06:29:03;;;;;;;11.10;7.30;;;11.80;99.90;;;;;;5019471;28;20411;-73
2023/03/19 06:31:30;;;;;;;9.20;8.10;;;11.90;99.90;;;;;;5012954;28;20929;-73
2023/03/19 06:33:56;;;;;;;7.97;7.07;;;12.00;99.90;;;;;;5019670;28;20878;-73
2023/03/19 06:36:23;;;;;;;12.20;7.65;;;12.00;99.90;;;;;;5016721;28;20992;-73
2023/03/19 06:38:50;;;;;;;9.00;6.80;;;12.00;99.90;;;;;;5018997;28;20419;-73
2023/03/19 06:41:16;;;;;;;12.20;7.03;;;11.90;99.90;;;;;;5015447;28;21744;-73
2023/03/19 06:43:43;;;;;;;8.45;6.80;;;11.90;99.90;;;;;;5021724;28;20413;-74
2023/03/19 06:46:09;;;;;;;10.70;7.33;;;12.00;99.90;;;;;;5016482;28;20412;-74
2023/03/19 06:48:36;;;;;;;9.63;6.93;;;11.90;99.90;;;;;;5022102;28;20414;-73
2023/03/19 06:51:03;;;;;;;8.73;6.63;;;11.90;99.90;;;;;;5015639;28;20411;-73
2023/03/19 06:53:30;;;;;;;13.98;7.20;;;11.90;99.90;;;;;;5019908;28;21102;-73
2023/03/19 06:55:56;;;;;;;8.93;6.85;;;11.90;99.90;;;;;;5001943;28;20419;-72
2023/03/19 06:58:23;;;;;;;9.87;6.40;;;11.90;99.90;;;;;;5017285;28;20427;-73
2023/03/19 07:00:49;;;;;;;9.45;6.57;;;12.00;99.90;;;;;;5018944;28;20411;-73
2023/03/19 07:16:18;;;;;;;9.75;6.50;;;12.00;99.90;;;;;;5019666;28;20391;-76
2023/03/19 07:18:44;;;;;;;10.25;6.32;;;10.00;99.90;;;;;;4998768;28;20435;-74
2023/03/19 07:21:11;;;;;;;8.45;5.78;;;10.00;99.90;;;;;;5021283;28;20549;-74
2023/03/19 07:23:37;;;;;;;18.00;7.30;;;10.00;99.90;;;;;;4996614;28;20500;-74
2023/03/19 08:55:27;;;;;;;6.72;4.30;;;8.50;99.90;;;;;;6148504;22;2989468;-85
2023/03/19 08:57:54;;;;;;;4.65;3.95;;;8.60;99.90;;;;;;6179560;23;20371;-85
2023/03/19 09:00:23;;;;;;;4.57;3.83;;;8.50;99.90;;;;;;6198513;23;20409;-85
2023/03/19 09:02:49;;;;;;;4.10;3.38;;;8.50;99.90;;;;;;6200901;23;20398;-85
2023/03/19 09:05:21;;;;;;;4.18;3.58;;;8.50;99.90;;;;;;6200275;23;20367;-85
2023/03/19 09:07:50;;;;;;;4.68;3.20;;;8.50;99.90;;;;;;6199471;23;20381;-85
2023/03/19 09:10:19;;;;;;;3.88;2.90;;;8.40;99.90;;;;;;6200678;23;20825;-84
2023/03/19 09:12:46;;;;;;;3.63;3.08;;;8.40;99.90;;;;;;6201244;23;20367;-85
2023/03/19 09:15:14;;;;;;;3.55;2.75;;;8.50;99.90;;;;;;6237001;22;20897;-85
2023/03/19 09:17:41;;;;;;;4.97;3.10;;;8.40;99.90;;;;;;6197993;23;20362;-86
2023/03/19 11:49:20;;;;;;;7.85;4.97;;;8.30;99.90;;;;;;5082888;27;20395;-74
2023/03/19 11:52:13;;;;;;;5.40;4.90;;;8.50;99.90;;;;;;5100144;27;20831;-74
2023/03/19 11:55:39;;;;;;;4.78;3.70;;;8.40;99.90;;;;;;5087896;28;20440;-73
2023/03/19 11:58:56;;;;;;;4.00;3.40;;;8.20;99.90;;;;;;5080389;28;20404;-74
2023/03/19 12:01:54;;;;;;;4.95;3.90;;;8.00;99.90;;;;;;5090528;28;20424;-75
2023/03/19 12:05:03;;;;;;;4.35;3.40;;;8.20;99.90;;;;;;5113398;27;20407;-73
2023/03/19 12:08:10;;;;;;;3.65;3.00;;;8.20;99.90;;;;;;5093838;28;22764;-73
2023/03/19 12:11:16;;;;;;;3.40;2.88;;;8.20;99.90;;;;;;5090124;28;20416;-73
2023/03/19 12:14:10;;;;;;;3.60;3.03;;;8.10;99.90;;;;;;5102240;28;20778;-73
2023/03/19 12:16:56;;;;;;;4.07;3.15;;;8.20;99.90;;;;;;5090683;28;21051;-73
2023/03/19 12:19:49;;;;;;;3.58;2.72;;;8.20;99.90;;;;;;5091735;28;20413;-73
2023/03/19 12:23:09;;;;;;;4.50;3.23;;;8.10;99.90;;;;;;5088700;28;20476;-74
2023/03/19 12:26:03;;;;;;;2.85;2.55;;;8.20;99.90;;;;;;5093113;28;21003;-73
2023/03/19 12:28:58;;;;;;;3.60;2.55;;;8.20;99.90;;;;;;5092842;28;20415;-73
2023/03/19 12:32:08;;;;;;;3.40;2.50;;;8.30;99.90;;;;;;5088429;28;20489;-74
2023/03/19 12:35:02;;;;;;;2.60;2.22;;;8.30;99.90;;;;;;5095617;28;20418;-73
2023/03/19 12:37:39;;;;;;;2.75;2.08;;;8.40;99.90;;;;;;5086634;28;20508;-74
2023/03/19 12:40:40;;;;;;;3.50;2.40;;;8.30;99.90;;;;;;5095062;28;20464;-73
2023/03/19 12:43:50;;;;;;;2.90;2.40;;;8.40;99.90;;;;;;5086018;28;20503;-73
2023/03/19 12:46:37;;;;;;;3.75;2.63;;;8.40;99.90;;;;;;5079815;28;20419;-75
2023/03/19 12:49:27;;;;;;;3.47;2.05;;;8.40;99.90;;;;;;5097228;27;20420;-76
2023/03/19 12:52:06;;;;;;;3.10;2.10;;;8.40;99.90;;;;;;5059392;28;20498;-75
2023/03/19 12:54:43;;;;;;;5.20;2.17;;;8.40;99.90;;;;;;5081025;28;20412;-73
2023/03/19 12:57:34;;;;;;;2.92;2.00;;;8.60;99.90;;;;;;5070402;28;21125;-73
2023/03/19 13:00:12;;;;;;;2.53;2.00;;;8.70;99.90;;;;;;5077112;28;20604;-73
2023/03/19 13:02:52;;;;;;;2.90;1.92;;;8.70;99.90;;;;;;5079139;28;20578;-73
2023/03/19 13:05:54;;;;;;;2.55;1.90;;;8.80;99.90;;;;;;5072527;28;20415;-73
2023/03/19 13:08:41;;;;;;;2.77;2.10;;;8.80;99.90;;;;;;5073126;28;21006;-73
2023/03/19 13:11:18;;;;;;;3.90;3.00;;;8.90;99.90;;;;;;5072471;28;20447;-75
2023/03/19 13:13:57;;;;;;;4.65;3.00;;;8.90;99.90;;;;;;5078017;28;20927;-75
2023/03/19 13:16:51;;;;;;;3.10;2.80;;;8.80;99.90;;;;;;5080571;28;20428;-76
2023/03/19 13:19:42;;;;;;;3.75;2.80;;;8.80;99.90;;;;;;5051803;28;20413;-76
2023/03/19 13:22:16;;;;;;;2.72;2.50;;;8.80;99.90;;;;;;5070342;28;21000;-76
2023/03/19 13:24:46;;;;;;;2.80;2.50;;;8.80;99.90;;;;;;5076646;28;20425;-76
2023/03/19 13:27:29;;;;;;;3.75;2.40;;;8.80;99.90;;;;;;5069225;28;20420;-76
2023/03/19 13:30:11;;;;;;;3.25;2.63;;;8.70;99.90;;;;;;5077314;28;20905;-74
2023/03/19 13:32:41;;;;;;;2.58;2.38;;;8.80;99.90;;;;;;5073868;28;20471;-73
2023/03/19 13:35:43;;;;;;;2.90;2.40;;;8.80;99.90;;;;;;5070280;28;20450;-74
2023/03/19 13:38:36;;;;;;;3.35;2.45;;;8.90;99.90;;;;;;5062656;28;20419;-74
2023/03/19 13:41:03;;;;;;;3.17;2.67;;;8.90;99.90;;;;;;5071394;28;20949;-74
2023/03/19 13:43:29;;;;;;;3.47;2.80;;;8.90;99.90;;;;;;5068127;28;20419;-74
2023/03/19 13:46:11;;;;;;;4.47;3.05;;;8.90;99.90;;;;;;5068619;28;20416;-74
2023/03/19 13:48:52;;;;;;;5.45;3.00;;;8.90;99.90;;;;;;5056607;28;20400;-74
2023/03/19 13:51:18;;;;;;;4.13;2.60;;;8.90;99.90;;;;;;5078388;28;20408;-74
2023/03/19 13:54:15;;;;;;;3.20;2.50;;;8.90;99.90;;;;;;5075178;28;20450;-74
2023/03/19 13:57:04;;;;;;;3.73;2.80;;;8.90;99.90;;;;;;5075581;28;20912;-74
2023/03/19 13:59:35;;;;;;;4.30;2.88;;;8.90;99.90;;;;;;5058681;28;20558;-74
2023/03/19 14:02:25;;;;;;;3.20;2.90;;;8.90;99.90;;;;;;5075683;28;20421;-74
2023/03/19 14:05:01;;;;;;;4.78;3.80;;;8.90;99.90;;;;;;5074430;28;20418;-74
2023/03/19 14:07:39;;;;;;;5.75;3.60;;;9.00;99.90;;;;;;5054806;28;20423;-74
2023/03/19 14:10:28;;;;;;;5.75;3.50;;;9.00;99.90;;;;;;5077695;28;21056;-74
2023/03/19 14:13:07;;;;;;;4.13;3.15;;;9.00;99.90;;;;;;5085622;27;20411;-74
2023/03/19 14:15:39;;;;;;;4.63;3.28;;;9.10;99.90;;;;;;5075959;28;20778;-74
2023/03/19 14:18:15;;;;;;;5.30;3.40;;;9.20;99.90;;;;;;5078210;28;20535;-74
2023/03/19 14:21:03;;;;;;;4.47;3.30;;;9.20;99.90;;;;;;5071453;28;20987;-74
2023/03/19 14:23:31;;;;;;;5.93;3.50;;;9.30;99.90;;;;;;5103855;27;20411;-74
2023/03/19 14:26:00;;;;;;;6.27;3.50;;;9.30;99.90;;;;;;5076391;28;20935;-74
2023/03/19 14:28:43;;;;;;;5.30;3.40;;;9.30;99.90;;;;;;5077646;28;20417;-73
2023/03/19 14:31:36;;;;;;;5.10;3.35;;;9.30;99.90;;;;;;5085828;28;20415;-74
2023/03/19 14:34:36;;;;;;;5.20;3.40;;;9.40;99.90;;;;;;5062183;28;20880;-74
2023/03/19 14:37:23;;;;;;;4.90;3.70;;;9.40;99.90;;;;;;5073884;28;20431;-74
2023/03/19 14:39:58;;;;;;;5.50;3.65;;;9.30;99.90;;;;;;5072622;28;20423;-73
2023/03/19 14:42:55;;;;;;;5.13;3.30;;;9.20;99.90;;;;;;5070036;28;20413;-74
2023/03/19 14:46:00;;;;;;;5.82;3.83;;;9.20;99.90;;;;;;5069358;28;20449;-74
2023/03/19 14:48:56;;;;;;;4.97;3.50;;;9.20;99.90;;;;;;5070062;28;20416;-74
2023/03/19 14:51:43;;;;;;;5.72;3.10;;;9.30;99.90;;;;;;5077328;28;20410;-74
2023/03/19 14:54:49;;;;;;;5.05;3.10;;;9.20;99.90;;;;;;5081245;28;20419;-73
2023/03/19 14:57:25;;;;;;;3.88;2.85;;;9.20;99.90;;;;;;5086197;28;20408;-74
2023/03/19 14:59:52;;;;;;;5.07;2.90;;;9.10;99.90;;;;;;5079801;28;20786;-73
2023/03/19 15:02:47;;;;;;;4.13;2.80;;;9.10;99.90;;;;;;5079380;28;20401;-74
2023/03/19 15:05:29;;;;;;;5.13;3.10;;;9.20;99.90;;;;;;5079672;28;20525;-73
2023/03/19 15:08:11;;;;;;;4.65;3.10;;;9.20;99.90;;;;;;5079299;28;20494;-74
2023/03/19 15:11:29;;;;;;;4.65;2.80;;;9.50;99.90;;;;;;5072499;28;20458;-74
2023/03/19 15:14:33;;;;;;;5.80;3.13;;;9.40;99.90;;;;;;5069918;28;20538;-74
2023/03/19 15:17:24;;;;;;;4.50;2.97;;;9.30;99.90;;;;;;5072478;28;20417;-74
2023/03/19 15:19:53;;;;;;;3.78;3.10;;;9.20;99.90;;;;;;5072546;28;20425;-76
2023/03/19 15:22:28;;;;;;;4.28;2.92;;;9.20;99.90;;;;;;5073895;28;20909;-76
2023/03/19 15:25:05;;;;;;;5.45;2.92;;;9.20;99.90;;;;;;5076317;28;20431;-76
2023/03/19 15:27:31;;;;;;;3.43;2.90;;;9.10;99.90;;;;;;5067748;28;21109;-73
2023/03/19 15:29:58;;;;;;;4.07;2.75;;;9.10;99.90;;;;;;5077346;28;20432;-73
2023/03/19 15:32:37;;;;;;;4.55;2.90;;;9.10;99.90;;;;;;5068171;28;21055;-73
2023/03/19 15:35:05;;;;;;;3.00;2.70;;;9.10;99.90;;;;;;5058159;28;20945;-76
2023/03/19 15:37:42;;;;;;;3.88;2.83;;;9.10;99.90;;;;;;5087421;28;20982;-76
2023/03/19 15:40:15;;;;;;;4.13;2.80;;;9.20;99.90;;;;;;5072725;28;20423;-73
2023/03/19 15:42:45;;;;;;;4.68;3.00;;;9.20;99.90;;;;;;5073393;28;20413;-74
2023/03/19 15:45:17;;;;;;;4.90;3.00;;;9.20;99.90;;;;;;5071849;28;21020;-74
2023/03/19 15:48:03;;;;;;;3.72;2.80;;;9.20;99.90;;;;;;5068440;28;20418;-73
2023/03/19 15:50:35;;;;;;;3.50;2.70;;;9.20;99.90;;;;;;5070638;28;20399;-76
2023/03/19 15:53:16;;;;;;;4.53;3.28;;;9.20;99.90;;;;;;5091841;28;20419;-73
2023/03/19 15:55:43;;;;;;;4.35;3.90;;;9.10;99.90;;;;;;5074435;28;20992;-75
2023/03/19 15:58:15;;;;;;;5.03;4.00;;;9.10;99.90;;;;;;5071765;28;20798;-76
2023/03/19 16:00:43;;;;;;;6.10;5.18;;;9.10;99.90;;;;;;5086177;28;20569;-75
2023/03/19 16:03:18;;;;;;;5.82;5.10;;;9.10;99.90;;;;;;5075033;28;20418;-73
2023/03/19 16:05:51;;;;;;;5.95;5.07;;;9.10;99.90;;;;;;5100909;28;20411;-73
2023/03/19 16:08:26;;;;;;;5.60;4.40;;;9.00;99.90;;;;;;5067802;28;20479;-73
2023/03/19 16:10:52;;;;;;;4.05;3.72;;;9.00;99.90;;;;;;5099716;28;20404;-75
2023/03/19 16:13:37;;;;;;;4.75;4.00;;;9.00;99.90;;;;;;5071095;28;20453;-73
2023/03/19 16:16:20;;;;;;;4.53;3.72;;;9.00;99.90;;;;;;5096469;28;20415;-75
2023/03/19 16:18:52;;;;;;;3.90;3.42;;;9.00;99.90;;;;;;5070385;28;20853;-73
2023/03/19 16:21:27;;;;;;;5.47;3.40;;;8.90;99.90;;;;;;5098568;27;22138;-75
2023/03/19 16:24:41;;;;;;;4.22;3.17;;;9.00;99.90;;;;;;5056329;28;20770;-75
2023/03/19 16:27:16;;;;;;;3.58;3.10;;;9.10;99.90;;;;;;5072407;28;20457;-75
2023/03/19 16:29:57;;;;;;;4.05;3.25;;;9.20;99.90;;;;;;5071786;28;20413;-75
2023/03/19 16:32:30;;;;;;;5.35;3.47;;;9.30;99.90;;;;;;5103201;27;20411;-75
2023/03/19 16:35:19;;;;;;;5.03;3.65;;;9.30;99.90;;;;;;5072410;28;20816;-75
2023/03/19 16:37:47;;;;;;;7.53;3.90;;;9.40;99.90;;;;;;5056966;28;20523;-75
2023/03/19 16:40:17;;;;;;;9.57;4.15;;;9.40;99.90;;;;;;5071420;28;20427;-75
2023/03/19 16:42:44;;;;;;;5.55;3.67;;;9.40;99.90;;;;;;5072877;28;20411;-75
2023/03/19 16:45:29;;;;;;;6.38;4.15;;;9.50;99.90;;;;;;5075810;28;20419;-75
2023/03/19 16:47:59;;;;;;;7.90;4.32;;;9.50;99.90;;;;;;5069515;28;20487;-75
2023/03/19 16:50:35;;;;;;;6.70;4.10;;;9.60;99.90;;;;;;5068662;28;22351;-75
2023/03/19 16:53:11;;;;;;;6.40;4.18;;;9.60;99.90;;;;;;5067917;28;20504;-76
2023/03/19 16:55:38;;;;;;;8.48;4.70;;;9.70;99.90;;;;;;5071916;28;20420;-75
2023/03/19 16:58:18;;;;;;;6.07;4.13;;;9.80;99.90;;;;;;5068727;28;20940;-75
2023/03/19 17:00:46;;;;;;;9.43;4.22;;;9.80;99.90;;;;;;5072835;28;20450;-75
2023/03/19 17:03:18;;;;;;;7.15;3.97;;;9.90;99.90;;;;;;5073619;28;20434;-75
2023/03/19 17:05:46;;;;;;;5.63;4.17;;;10.00;99.90;;;;;;5101897;27;20487;-75
2023/03/19 17:08:13;;;;;;;5.20;4.00;;;10.00;99.90;;;;;;5066932;28;20434;-75
2023/03/19 17:10:47;;;;;;;6.25;4.20;;;9.90;99.90;;;;;;5057591;28;20414;-75
2023/03/19 17:13:30;;;;;;;6.70;3.80;;;9.90;99.90;;;;;;5067843;28;20419;-75
2023/03/19 17:16:05;;;;;;;5.95;4.63;;;10.00;99.90;;;;;;5049564;28;20410;-75
2023/03/19 17:18:35;;;;;;;7.50;4.30;;;10.00;99.90;;;;;;5069518;28;20497;-75
2023/03/19 17:21:25;;;;;;;5.25;4.45;;;10.00;99.90;;;;;;5065706;28;20410;-75
2023/03/19 17:23:53;;;;;;;7.10;5.15;;;10.00;99.90;;;;;;5073204;28;20418;-76
2023/03/19 17:26:27;;;;;;;7.65;5.13;;;10.00;99.90;;;;;;5069470;28;20419;-76
2023/03/19 17:28:55;;;;;;;7.45;4.88;;;10.10;99.90;;;;;;5069972;28;20799;-75
2023/03/19 17:31:32;;;;;;;7.63;4.50;;;10.20;99.90;;;;;;5048444;28;20765;-76
2023/03/19 17:34:15;;;;;;;5.28;4.35;;;10.20;99.90;;;;;;5069191;28;20442;-76
2023/03/19 17:36:58;;;;;;;5.38;4.57;;;10.20;99.90;;;;;;5053509;28;20414;-76